Time;durP1;ratioP1;P1;durP2;ratioP2;P2;SDS_P1;SDS_P2;PMS_P1;PMS_P2;Temp;Humidity;BMP_temperature;BMP_pressure;BME280_temperature;BME280_humidity;BME280_pressure;Samples;Min_cycle;Max_cycle;Signal;HPM_P1;HPM_P2
2023/08/10 00:01:01;;;;;;;11.73;8.05;;;;;;;;;;5041742;28;20025;-68
2023/08/10 00:03:28;;;;;;;11.75;8.30;;;;;;;;;;5052545;28;20060;-68
2023/08/10 00:05:54;;;;;;;10.80;8.07;;;;;;;;;;5046531;28;20028;-68
2023/08/10 00:08:20;;;;;;;10.32;5.82;;;;;;;;;;5046368;28;20060;-68
2023/08/10 00:10:50;;;;;;;15.02;10.82;;;;;;;;;;5036293;28;20030;-68
2023/08/10 00:13:16;;;;;;;13.10;6.80;;;;;;;;;;5053668;28;20025;-68
2023/08/10 00:15:43;;;;;;;10.15;7.82;;;;;;;;;;5052321;28;20027;-68
2023/08/10 00:18:09;;;;;;;8.85;6.45;;;;;;;;;;5045642;28;20040;-68
2023/08/10 00:20:36;;;;;;;13.77;8.82;;;;;;;;;;5047713;28;20044;-68
2023/08/10 00:23:02;;;;;;;10.38;7.20;;;;;;;;;;5050383;28;20138;-68
2023/08/10 00:25:28;;;;;;;12.20;7.38;;;;;;;;;;5044984;28;20064;-68
2023/08/10 00:27:55;;;;;;;7.95;5.50;;;;;;;;;;5052340;28;20051;-68
2023/08/10 00:30:22;;;;;;;9.18;7.70;;;;;;;;;;5045327;28;20428;-68
2023/08/10 00:32:48;;;;;;;13.32;10.20;;;;;;;;;;5037879;28;20513;-68
2023/08/10 00:35:14;;;;;;;14.05;9.30;;;;;;;;;;5040203;28;20021;-68
2023/08/10 00:37:40;;;;;;;6.35;5.13;;;;;;;;;;5039732;28;20060;-68
2023/08/10 00:40:12;;;;;;;8.90;5.03;;;;;;;;;;5051828;28;20025;-68
2023/08/10 00:42:38;;;;;;;6.50;5.15;;;;;;;;;;5042378;28;20028;-68
2023/08/10 00:45:04;;;;;;;8.10;4.97;;;;;;;;;;5058012;28;20032;-68
2023/08/10 00:47:30;;;;;;;7.70;4.85;;;;;;;;;;5047536;28;20111;-68
2023/08/10 00:49:56;;;;;;;6.20;4.30;;;;;;;;;;5051983;28;20024;-69
2023/08/10 00:52:22;;;;;;;7.85;4.88;;;;;;;;;;5051509;28;20542;-68
2023/08/10 00:54:48;;;;;;;6.35;4.60;;;;;;;;;;5050731;28;20021;-69
2023/08/10 00:57:15;;;;;;;6.57;4.55;;;;;;;;;;5049627;28;20061;-67
2023/08/10 00:59:41;;;;;;;6.50;4.43;;;;;;;;;;5040768;28;20041;-69
2023/08/10 01:02:07;;;;;;;7.85;4.97;;;;;;;;;;5051779;28;20040;-68
2023/08/10 01:04:33;;;;;;;4.32;3.53;;;;;;;;;;5046209;28;20029;-68
2023/08/10 01:07:08;;;;;;;6.80;4.60;;;;;;;;;;5038653;28;20471;-68
2023/08/10 01:09:44;;;;;;;4.93;3.70;;;;;;;;;;5048418;28;20025;-69
2023/08/10 01:12:19;;;;;;;4.75;3.92;;;;;;;;;;5047597;28;20034;-69
2023/08/10 01:14:52;;;;;;;5.50;4.10;;;;;;;;;;5050025;28;20041;-69
2023/08/10 01:17:21;;;;;;;4.32;3.70;;;;;;;;;;5040348;28;20029;-69
2023/08/10 01:19:48;;;;;;;3.92;3.63;;;;;;;;;;5047253;28;20033;-69
2023/08/10 01:22:33;;;;;;;4.75;3.05;;;;;;;;;;5048504;28;20025;-69
2023/08/10 01:25:04;;;;;;;3.78;3.40;;;;;;;;;;5049832;28;20036;-69
2023/08/10 01:27:31;;;;;;;7.70;3.80;;;;;;;;;;5049110;28;20039;-68
2023/08/10 01:29:58;;;;;;;5.97;3.42;;;;;;;;;;5048705;28;20025;-69
2023/08/10 01:32:26;;;;;;;3.60;3.17;;;;;;;;;;5045843;28;20033;-69
2023/08/10 01:34:52;;;;;;;5.63;3.30;;;;;;;;;;5042999;28;20116;-69
2023/08/10 01:37:18;;;;;;;6.82;3.30;;;;;;;;;;5044832;28;20109;-69
2023/08/10 01:39:44;;;;;;;4.07;3.65;;;;;;;;;;5045240;28;20033;-70
2023/08/10 01:42:10;;;;;;;6.00;3.70;;;;;;;;;;5046605;28;20024;-69
2023/08/10 01:44:36;;;;;;;3.78;3.47;;;;;;;;;;5041446;28;20037;-69
2023/08/10 01:47:04;;;;;;;4.53;3.30;;;;;;;;;;5050662;28;20108;-69
2023/08/10 01:49:31;;;;;;;6.50;3.50;;;;;;;;;;5048873;28;20087;-69
2023/08/10 01:51:58;;;;;;;3.97;2.65;;;;;;;;;;5042161;28;20056;-69
2023/08/10 01:54:24;;;;;;;4.45;3.08;;;;;;;;;;5044963;28;20032;-69
2023/08/10 01:56:53;;;;;;;5.15;3.45;;;;;;;;;;5049540;28;20506;-69
2023/08/10 01:59:19;;;;;;;3.28;2.97;;;;;;;;;;5048784;28;21320;-69
2023/08/10 02:01:45;;;;;;;4.45;3.30;;;;;;;;;;5047811;28;20108;-70
2023/08/10 02:04:11;;;;;;;3.53;3.22;;;;;;;;;;5040778;28;20032;-69
2023/08/10 02:06:40;;;;;;;5.57;3.28;;;;;;;;;;5043755;28;20021;-69
2023/08/10 02:09:06;;;;;;;4.43;3.58;;;;;;;;;;5053090;28;20082;-69
2023/08/10 02:11:32;;;;;;;5.07;2.97;;;;;;;;;;5053608;28;20056;-69
2023/08/10 02:14:00;;;;;;;4.07;3.67;;;;;;;;;;5048308;28;20048;-69
2023/08/10 02:16:26;;;;;;;3.35;3.05;;;;;;;;;;5041601;28;20056;-69
2023/08/10 02:18:52;;;;;;;4.82;3.10;;;;;;;;;;5050699;28;20037;-69
2023/08/10 02:21:18;;;;;;;4.47;3.22;;;;;;;;;;5053345;28;20032;-69
2023/08/10 02:23:44;;;;;;;4.97;3.05;;;;;;;;;;5047943;28;20484;-69
2023/08/10 02:26:10;;;;;;;4.32;3.22;;;;;;;;;;5058050;28;20017;-69
2023/08/10 02:28:36;;;;;;;4.30;2.60;;;;;;;;;;5054236;28;20058;-69
2023/08/10 02:31:04;;;;;;;6.82;3.17;;;;;;;;;;5052928;28;20021;-69
2023/08/10 02:33:30;;;;;;;4.50;3.33;;;;;;;;;;5045180;28;20056;-69
2023/08/10 02:35:56;;;;;;;3.78;2.35;;;;;;;;;;5054052;28;20082;-69
2023/08/10 02:38:26;;;;;;;4.70;2.28;;;;;;;;;;5045456;28;20146;-69
2023/08/10 02:40:52;;;;;;;5.75;2.85;;;;;;;;;;5047097;28;20091;-69
2023/08/10 02:43:18;;;;;;;2.80;2.30;;;;;;;;;;5054003;28;20478;-69
2023/08/10 02:45:44;;;;;;;5.18;2.30;;;;;;;;;;5055575;28;20031;-69
2023/08/10 02:48:10;;;;;;;4.60;2.78;;;;;;;;;;5049412;28;20023;-69
2023/08/10 02:50:36;;;;;;;2.78;2.42;;;;;;;;;;5051723;28;20112;-69
2023/08/10 02:53:02;;;;;;;3.47;2.40;;;;;;;;;;5051850;28;20029;-68
2023/08/10 02:55:28;;;;;;;5.05;2.65;;;;;;;;;;5050813;28;20376;-68
2023/08/10 02:57:54;;;;;;;2.83;2.53;;;;;;;;;;5052200;28;20352;-68
2023/08/10 03:00:21;;;;;;;4.45;2.40;;;;;;;;;;5047804;28;20032;-69
2023/08/10 03:02:50;;;;;;;6.13;2.67;;;;;;;;;;5051313;28;20029;-69
2023/08/10 03:05:18;;;;;;;3.00;1.98;;;;;;;;;;5052536;28;20582;-69
2023/08/10 03:07:45;;;;;;;2.65;2.20;;;;;;;;;;5051526;28;20033;-69
2023/08/10 03:10:11;;;;;;;2.80;2.42;;;;;;;;;;5053978;28;20025;-69
2023/08/10 03:12:38;;;;;;;3.13;2.20;;;;;;;;;;5053212;28;20025;-69
2023/08/10 03:15:09;;;;;;;2.67;2.33;;;;;;;;;;5053807;28;20116;-69
2023/08/10 03:17:35;;;;;;;2.85;2.38;;;;;;;;;;5047839;28;20063;-68
2023/08/10 03:20:03;;;;;;;3.33;2.28;;;;;;;;;;5054171;28;20061;-69
2023/08/10 03:22:29;;;;;;;4.63;2.72;;;;;;;;;;5049265;28;20021;-69
2023/08/10 03:24:56;;;;;;;2.83;2.53;;;;;;;;;;5053409;28;20025;-69
2023/08/10 03:27:22;;;;;;;5.00;2.42;;;;;;;;;;5054348;28;20435;-69
2023/08/10 03:29:48;;;;;;;2.78;2.40;;;;;;;;;;5048738;28;20568;-69
2023/08/10 03:32:14;;;;;;;3.10;2.25;;;;;;;;;;5042475;28;20030;-69
2023/08/10 03:34:40;;;;;;;3.10;2.38;;;;;;;;;;5046099;28;20130;-69
2023/08/10 03:37:06;;;;;;;5.63;3.00;;;;;;;;;;5051682;28;20033;-69
2023/08/10 03:39:32;;;;;;;5.25;2.50;;;;;;;;;;5043137;28;20055;-69
2023/08/10 03:41:58;;;;;;;3.08;2.40;;;;;;;;;;5049690;28;20128;-69
2023/08/10 03:44:24;;;;;;;4.05;2.80;;;;;;;;;;5044356;28;20115;-69
2023/08/10 03:46:53;;;;;;;4.07;2.58;;;;;;;;;;5052722;28;20051;-69
2023/08/10 03:49:19;;;;;;;3.10;2.55;;;;;;;;;;5052571;28;20028;-69
2023/08/10 03:51:46;;;;;;;3.38;2.65;;;;;;;;;;5047303;28;20029;-69
2023/08/10 03:54:12;;;;;;;4.60;2.80;;;;;;;;;;5053774;28;20043;-69
2023/08/10 03:56:38;;;;;;;3.95;3.40;;;;;;;;;;5051929;28;20029;-69
2023/08/10 03:59:04;;;;;;;3.65;2.65;;;;;;;;;;5050906;28;20605;-69
2023/08/10 04:01:30;;;;;;;6.47;3.00;;;;;;;;;;5051056;28;20028;-69
2023/08/10 04:03:56;;;;;;;3.22;2.65;;;;;;;;;;5046804;28;20037;-69
2023/08/10 04:06:23;;;;;;;4.15;2.80;;;;;;;;;;5051650;28;20029;-70
2023/08/10 04:08:49;;;;;;;5.25;3.20;;;;;;;;;;5050364;28;20082;-69
2023/08/10 04:11:15;;;;;;;3.38;3.00;;;;;;;;;;5045232;28;20033;-69
2023/08/10 04:13:41;;;;;;;4.30;3.70;;;26.00;99.90;;;;;;5038324;28;20026;-70
2023/08/10 04:16:07;;;;;;;3.92;3.50;;;23.70;99.90;;;;;;5052116;28;20028;-70
2023/08/10 04:18:33;;;;;;;6.45;3.83;;;23.50;99.90;;;;;;5050191;28;20490;-70
2023/08/10 04:21:00;;;;;;;4.65;4.20;;;23.40;99.90;;;;;;5048149;28;20021;-70
2023/08/10 04:23:26;;;;;;;4.68;4.10;;;23.50;99.90;;;;;;5047863;28;20037;-69
2023/08/10 04:25:51;;;;;;;5.28;3.80;;;23.50;99.90;;;;;;5052692;28;20035;-70
2023/08/10 04:28:17;;;;;;;5.93;4.65;;;23.40;99.90;;;;;;5045880;28;20115;-70
2023/08/10 04:30:43;;;;;;;4.63;3.85;;;23.40;99.90;;;;;;5049097;28;20363;-68
2023/08/10 04:33:09;;;;;;;8.95;4.10;;;23.50;99.90;;;;;;5041694;28;20021;-70
2023/08/10 04:35:35;;;;;;;6.15;4.28;;;23.50;99.90;;;;;;5042350;28;20364;-69
2023/08/10 04:38:01;;;;;;;4.45;3.92;;;23.50;99.90;;;;;;5032799;28;20076;-69
2023/08/10 04:40:26;;;;;;;6.40;4.50;;;23.30;99.90;;;;;;5048240;28;20114;-69
2023/08/10 04:42:52;;;;;;;5.65;4.25;;;23.40;99.90;;;;;;5046223;28;20033;-70
2023/08/10 04:45:18;;;;;;;5.10;4.60;;;23.50;99.90;;;;;;5055857;28;20028;-70
2023/08/10 04:47:46;;;;;;;5.32;4.10;;;23.40;99.90;;;;;;5051635;28;20025;-69
2023/08/10 04:50:12;;;;;;;5.45;4.32;;;23.40;99.90;;;;;;5044394;28;20036;-70
2023/08/10 04:52:38;;;;;;;4.50;3.80;;;23.40;99.90;;;;;;5049698;28;20033;-70
2023/08/10 04:55:05;;;;;;;6.68;4.90;;;23.30;99.90;;;;;;5040596;28;20029;-70
2023/08/10 04:57:31;;;;;;;5.43;4.35;;;23.30;99.90;;;;;;5048374;28;20786;-69
2023/08/10 04:59:56;;;;;;;6.38;4.15;;;23.40;99.90;;;;;;5050731;28;20164;-69
2023/08/10 05:02:22;;;;;;;4.95;4.45;;;23.40;99.90;;;;;;5048645;28;20024;-69
2023/08/10 05:04:48;;;;;;;4.70;4.30;;;23.50;99.90;;;;;;5049173;28;20033;-70
2023/08/10 05:07:14;;;;;;;5.03;4.32;;;23.50;99.90;;;;;;5041286;28;20416;-70
2023/08/10 05:09:39;;;;;;;7.55;5.55;;;23.50;99.90;;;;;;5046857;28;20040;-70
2023/08/10 05:12:05;;;;;;;5.18;4.68;;;23.50;99.90;;;;;;5043820;28;20033;-70
2023/08/10 05:14:31;;;;;;;5.85;5.05;;;23.50;99.90;;;;;;5050672;28;20032;-70
2023/08/10 05:16:56;;;;;;;6.00;5.40;;;23.40;99.90;;;;;;5045244;28;20037;-70
2023/08/10 05:19:22;;;;;;;6.07;5.50;;;23.40;99.90;;;;;;5047014;28;20068;-70
2023/08/10 05:21:48;;;;;;;5.30;4.80;;;23.40;99.90;;;;;;5048834;28;20025;-70
2023/08/10 05:24:13;;;;;;;6.32;5.13;;;23.50;99.90;;;;;;5050500;28;20040;-70
2023/08/10 05:26:39;;;;;;;5.00;4.43;;;23.50;99.90;;;;;;5050742;28;20032;-70
2023/08/10 05:29:05;;;;;;;6.22;5.50;;;23.50;99.90;;;;;;5051204;28;20036;-70
2023/08/10 05:31:30;;;;;;;5.50;5.00;;;23.50;99.90;;;;;;5044314;28;20100;-70
2023/08/10 05:33:56;;;;;;;5.78;4.68;;;23.60;99.90;;;;;;5035168;28;20042;-70
2023/08/10 05:36:21;;;;;;;5.82;4.95;;;23.50;99.90;;;;;;5034156;28;20053;-70
2023/08/10 05:38:47;;;;;;;8.13;5.55;;;23.40;99.90;;;;;;5047261;28;20124;-70
2023/08/10 05:41:13;;;;;;;5.25;4.75;;;23.50;99.90;;;;;;5048484;28;20017;-70
2023/08/10 05:43:39;;;;;;;8.50;5.75;;;23.50;99.90;;;;;;5047852;28;20040;-70
2023/08/10 05:46:05;;;;;;;6.22;5.63;;;23.50;99.90;;;;;;5043724;28;20025;-70
2023/08/10 05:48:31;;;;;;;6.45;4.90;;;23.50;99.90;;;;;;5040091;28;20036;-71
2023/08/10 05:50:56;;;;;;;6.18;4.53;;;23.50;99.90;;;;;;5052813;28;20029;-70
2023/08/10 05:53:22;;;;;;;5.82;5.25;;;23.50;99.90;;;;;;5052811;28;20032;-70
2023/08/10 05:55:50;;;;;;;6.28;5.10;;;23.50;99.90;;;;;;5054930;28;20021;-71
2023/08/10 05:58:16;;;;;;;6.43;4.47;;;23.50;99.90;;;;;;5052586;28;20138;-71
2023/08/10 06:00:42;;;;;;;5.40;4.60;;;23.50;99.90;;;;;;5051885;28;20115;-70
2023/08/10 06:03:08;;;;;;;4.90;4.43;;;23.60;99.90;;;;;;5050569;28;20029;-71
2023/08/10 06:05:33;;;;;;;4.45;4.15;;;23.50;99.90;;;;;;5052870;28;20017;-71
2023/08/10 06:07:59;;;;;;;5.13;4.35;;;23.50;99.90;;;;;;5054868;28;20057;-71
2023/08/10 06:10:25;;;;;;;5.63;3.85;;;23.50;99.90;;;;;;5055641;28;20033;-71
2023/08/10 06:12:51;;;;;;;4.68;3.88;;;23.50;99.90;;;;;;5050372;28;20025;-70
2023/08/10 06:15:18;;;;;;;7.47;4.40;;;23.50;99.90;;;;;;5046747;28;20036;-71
2023/08/10 06:17:45;;;;;;;4.97;4.45;;;23.50;99.90;;;;;;5054675;28;20028;-71
2023/08/10 06:20:13;;;;;;;6.88;3.78;;;23.60;99.90;;;;;;5051569;28;20095;-71
2023/08/10 06:22:41;;;;;;;5.15;3.15;;;23.60;99.90;;;;;;5051598;28;20399;-71
2023/08/10 06:25:08;;;;;;;5.78;3.38;;;23.60;99.90;;;;;;5048409;28;20104;-71
2023/08/10 06:27:34;;;;;;;4.95;3.05;;;23.60;99.90;;;;;;5049881;28;20048;-70
2023/08/10 06:30:04;;;;;;;4.07;2.88;;;23.60;99.90;;;;;;5040041;28;20021;-71
2023/08/10 06:32:31;;;;;;;7.43;3.35;;;23.60;99.90;;;;;;5043197;28;20033;-71
2023/08/10 06:34:57;;;;;;;6.10;3.30;;;23.70;99.90;;;;;;5049556;28;20025;-71
2023/08/10 06:37:23;;;;;;;6.05;3.00;;;23.80;99.90;;;;;;5047050;28;20025;-71
2023/08/10 06:39:48;;;;;;;6.60;2.85;;;23.70;99.90;;;;;;5053817;28;20044;-71
2023/08/10 06:42:16;;;;;;;5.47;2.75;;;23.70;99.90;;;;;;5050680;28;20025;-71
2023/08/10 06:44:43;;;;;;;4.82;3.65;;;23.80;99.90;;;;;;5051960;28;20425;-72
2023/08/10 06:47:08;;;;;;;4.15;2.88;;;23.80;99.90;;;;;;5052078;28;20547;-71
2023/08/10 06:49:35;;;;;;;4.18;2.83;;;23.80;99.90;;;;;;5046947;28;20036;-71
2023/08/10 06:52:00;;;;;;;5.70;2.70;;;23.80;99.90;;;;;;5052658;28;20028;-72
2023/08/10 06:54:27;;;;;;;4.72;3.13;;;23.80;99.90;;;;;;5037803;28;20589;-71
2023/08/10 06:56:53;;;;;;;3.22;2.10;;;23.90;99.90;;;;;;5049448;28;20041;-70
2023/08/10 06:59:19;;;;;;;3.22;1.90;;;24.00;99.90;;;;;;5040956;28;20091;-71
2023/08/10 07:01:44;;;;;;;4.28;2.35;;;24.00;99.90;;;;;;5046708;28;20068;-72
2023/08/10 07:04:10;;;;;;;7.50;2.17;;;24.00;99.90;;;;;;5045232;28;20025;-71
2023/08/10 07:06:36;;;;;;;4.15;2.03;;;24.00;99.90;;;;;;5047568;28;20040;-69
2023/08/10 07:09:03;;;;;;;3.22;2.03;;;24.00;99.90;;;;;;5048167;28;20502;-69
2023/08/10 07:11:29;;;;;;;7.35;2.03;;;24.10;99.90;;;;;;5048412;28;20497;-70
2023/08/10 07:13:55;;;;;;;3.33;2.30;;;24.10;99.90;;;;;;5050382;28;20037;-70
2023/08/10 07:16:20;;;;;;;6.15;2.50;;;24.20;99.90;;;;;;5041906;28;20084;-70
2023/08/10 07:18:46;;;;;;;2.45;2.00;;;24.30;99.90;;;;;;5045355;28;20041;-70
2023/08/10 07:21:12;;;;;;;5.35;2.38;;;24.30;99.90;;;;;;5049152;28;20017;-69
2023/08/10 07:23:38;;;;;;;8.95;2.60;;;24.30;99.90;;;;;;5047047;28;20395;-70
2023/08/10 07:26:03;;;;;;;7.63;3.38;;;24.40;99.90;;;;;;5052259;28;20475;-70
2023/08/10 07:28:30;;;;;;;3.92;1.83;;;24.40;99.90;;;;;;5046520;28;20031;-70
2023/08/10 07:30:55;;;;;;;2.53;1.60;;;24.40;99.90;;;;;;5046929;28;20045;-70
2023/08/10 07:33:21;;;;;;;2.97;1.80;;;24.40;99.90;;;;;;5050558;28;20021;-70
2023/08/10 07:35:47;;;;;;;2.58;1.48;;;24.40;99.90;;;;;;5051392;28;20045;-67
2023/08/10 07:38:13;;;;;;;2.20;1.30;;;24.40;99.90;;;;;;5052098;28;20083;-69
2023/08/10 07:40:39;;;;;;;2.55;1.52;;;24.40;99.90;;;;;;5044601;28;20491;-69
2023/08/10 07:43:04;;;;;;;4.65;1.60;;;24.40;99.90;;;;;;5049762;28;20036;-69
2023/08/10 07:45:31;;;;;;;6.20;1.35;;;24.50;99.90;;;;;;5049566;28;20041;-69
2023/08/10 07:47:57;;;;;;;7.18;1.58;;;24.40;99.90;;;;;;5050001;28;20041;-70
2023/08/10 07:50:22;;;;;;;3.85;1.80;;;24.50;99.90;;;;;;5050150;28;20151;-68
2023/08/10 07:52:48;;;;;;;5.07;1.80;;;24.60;99.90;;;;;;5042212;28;20071;-59
2023/08/10 07:55:15;;;;;;;3.65;1.98;;;24.60;99.90;;;;;;5045640;28;20037;-62
2023/08/10 07:57:41;;;;;;;6.60;1.65;;;24.70;99.90;;;;;;5043578;28;20503;-59
2023/08/10 08:00:10;;;;;;;3.55;2.20;;;24.70;99.90;;;;;;5041655;28;20065;-59
2023/08/10 08:02:36;;;;;;;4.72;1.55;;;24.80;99.90;;;;;;5045723;28;20498;-59
2023/08/10 08:05:03;;;;;;;7.65;2.75;;;24.80;99.90;;;;;;5045372;28;20406;-59
2023/08/10 08:07:32;;;;;;;3.67;2.58;;;24.80;99.90;;;;;;5051065;28;20033;-59
2023/08/10 08:09:58;;;;;;;4.28;1.83;;;24.80;99.90;;;;;;5043712;28;20482;-66
2023/08/10 08:12:26;;;;;;;4.63;2.17;;;24.80;99.90;;;;;;5044636;28;20059;-67
2023/08/10 08:14:52;;;;;;;5.03;2.05;;;24.90;99.90;;;;;;5043997;28;20020;-68
2023/08/10 08:17:19;;;;;;;2.70;2.00;;;25.00;99.90;;;;;;5050568;28;20052;-62
2023/08/10 08:19:44;;;;;;;163.60;21.65;;;25.00;99.90;;;;;;5045641;28;20070;-66
2023/08/10 08:22:10;;;;;;;13.15;4.15;;;25.00;99.90;;;;;;5047269;28;20021;-62
2023/08/10 08:24:36;;;;;;;9.10;3.42;;;25.00;99.90;;;;;;5050875;28;20037;-61
2023/08/10 08:27:02;;;;;;;6.20;2.08;;;25.10;99.90;;;;;;5050695;28;20017;-61
2023/08/10 08:29:28;;;;;;;10.68;3.53;;;25.20;99.90;;;;;;5047650;28;21804;-61
2023/08/10 08:31:53;;;;;;;4.50;2.35;;;25.20;99.90;;;;;;5051087;28;20115;-62
2023/08/10 08:34:20;;;;;;;2.53;1.85;;;;;;;;;;5050999;28;20079;-63
2023/08/10 08:36:47;;;;;;;2.90;2.17;;;;;;;;;;5049796;28;20039;-64
2023/08/10 08:39:13;;;;;;;8.10;2.33;;;;;;;;;;5050387;28;20037;-64
2023/08/10 08:41:39;;;;;;;3.28;2.05;;;;;;;;;;5052088;28;20029;-65
2023/08/10 08:44:06;;;;;;;9.13;2.25;;;;;;;;;;5047240;28;20123;-64
2023/08/10 08:46:35;;;;;;;2.97;2.28;;;25.20;99.90;;;;;;5051612;28;20078;-62
2023/08/10 08:49:02;;;;;;;5.75;2.10;;;25.50;99.90;;;;;;5049133;28;20044;-62
2023/08/10 08:51:28;;;;;;;3.58;2.13;;;25.60;99.90;;;;;;5051773;28;20033;-62
2023/08/10 08:53:55;;;;;;;4.90;2.25;;;25.60;99.90;;;;;;5051699;28;20013;-61
2023/08/10 08:56:21;;;;;;;5.85;1.88;;;25.60;99.90;;;;;;5048309;28;20391;-60
2023/08/10 08:58:47;;;;;;;3.90;2.20;;;25.60;99.90;;;;;;5052338;28;20056;-61
2023/08/10 09:01:13;;;;;;;5.82;2.45;;;25.70;99.90;;;;;;5051302;28;20025;-60
2023/08/10 09:03:40;;;;;;;4.57;2.47;;;25.60;99.90;;;;;;5052638;28;20106;-59
2023/08/10 09:06:06;;;;;;;2.55;2.35;;;25.70;99.90;;;;;;5052604;28;20021;-57
2023/08/10 09:08:32;;;;;;;6.53;2.75;;;25.70;99.90;;;;;;5051775;28;20028;-60
2023/08/10 09:10:58;;;;;;;6.85;2.72;;;25.80;99.90;;;;;;5048459;28;20025;-61
2023/08/10 09:13:49;;;;;;;4.72;1.98;;;;;;;;;;5049446;28;20035;-61
2023/08/10 09:16:15;;;;;;;6.70;2.40;;;25.90;99.90;;;;;;5054277;28;20017;-62
2023/08/10 09:18:44;;;;;;;4.68;2.28;;;26.00;99.90;;;;;;5054426;28;20376;-60
2023/08/10 09:21:23;;;;;;;2.33;2.10;;;26.00;99.90;;;;;;5054097;28;20009;-59
2023/08/10 09:23:53;;;;;;;4.60;2.22;;;26.10;99.90;;;;;;5050959;28;20494;-57
2023/08/10 09:26:20;;;;;;;5.15;2.28;;;26.10;99.90;;;;;;5052776;28;20746;-55
2023/08/10 09:28:49;;;;;;;4.75;2.30;;;26.20;99.90;;;;;;5054299;28;20037;-62
2023/08/10 09:31:25;;;;;;;9.70;2.20;;;26.20;99.90;;;;;;5055296;28;20479;-62
2023/08/10 09:33:59;;;;;;;5.60;2.75;;;26.20;99.90;;;;;;5049214;28;20029;-60
2023/08/10 09:36:26;;;;;;;3.83;2.60;;;26.30;99.90;;;;;;5054531;28;20017;-60
2023/08/10 09:38:53;;;;;;;4.18;2.50;;;26.30;99.90;;;;;;5052460;28;20038;-60
2023/08/10 09:41:21;;;;;;;4.13;2.58;;;26.30;99.90;;;;;;5055445;28;20092;-60
2023/08/10 09:43:47;;;;;;;3.05;2.13;;;26.40;99.90;;;;;;5052308;28;20492;-61
2023/08/10 09:46:14;;;;;;;2.30;2.00;;;26.40;99.90;;;;;;5053856;28;20177;-61
2023/08/10 09:48:46;;;;;;;4.05;2.08;;;26.40;99.90;;;;;;5051647;28;20017;-60
2023/08/10 09:51:12;;;;;;;5.03;2.30;;;26.40;99.90;;;;;;5055242;28;20047;-60
2023/08/10 09:53:38;;;;;;;6.07;2.42;;;26.50;99.90;;;;;;5042991;28;20051;-60
2023/08/10 09:56:07;;;;;;;4.28;2.30;;;26.50;99.90;;;;;;5044216;28;20466;-60
2023/08/10 09:58:37;;;;;;;4.40;2.25;;;26.50;99.90;;;;;;5046473;28;20132;-59
2023/08/10 10:01:06;;;;;;;5.43;2.03;;;26.50;99.90;;;;;;5055850;28;20500;-60
2023/08/10 10:03:33;;;;;;;3.50;2.10;;;26.60;99.90;;;;;;5054624;28;20041;-60
2023/08/10 10:06:00;;;;;;;3.03;2.10;;;26.60;99.90;;;;;;5055788;28;20013;-60
2023/08/10 10:08:26;;;;;;;2.60;2.40;;;26.70;99.90;;;;;;5054546;28;20017;-60
2023/08/10 10:10:56;;;;;;;4.60;2.40;;;26.70;99.90;;;;;;5055267;28;20029;-59
2023/08/10 10:13:23;;;;;;;4.15;2.50;;;26.70;99.90;;;;;;5046555;28;20068;-60
2023/08/10 10:15:48;;;;;;;5.85;2.15;;;26.80;99.90;;;;;;5054118;28;20025;-59
2023/08/10 10:18:14;;;;;;;5.50;2.45;;;26.70;99.90;;;;;;5054723;28;20044;-60
2023/08/10 10:20:43;;;;;;;2.95;2.35;;;26.80;99.90;;;;;;5052670;28;20025;-60
2023/08/10 10:23:16;;;;;;;3.70;2.25;;;;;;;;;;5054578;28;20028;-60
2023/08/10 10:26:02;;;;;;;4.97;2.17;;;;;;;;;;5049928;28;20433;-60
2023/08/10 10:28:30;;;;;;;2.78;1.95;;;;;;;;;;5040955;28;20033;-59
2023/08/10 10:31:06;;;;;;;6.53;2.20;;;26.90;99.90;;;;;;5048294;28;20029;-60
2023/08/10 10:33:33;;;;;;;5.18;2.10;;;27.10;99.90;;;;;;5037697;28;20402;-60
2023/08/10 10:36:13;;;;;;;6.90;2.55;;;27.10;99.90;;;;;;5051657;28;20021;-60
2023/08/10 10:38:41;;;;;;;3.90;2.70;;;27.10;99.90;;;;;;5045633;28;20501;-60
2023/08/10 10:41:31;;;;;;;4.03;3.45;;;27.50;99.90;;;;;;5053093;28;20031;-60
2023/08/10 10:44:02;;;;;;;6.13;3.05;;;27.80;99.90;;;;;;5035376;28;20445;-59
2023/08/10 10:46:35;;;;;;;4.68;2.72;;;27.70;99.90;;;;;;5051804;28;20397;-60
2023/08/10 10:49:11;;;;;;;4.07;2.80;;;27.80;99.90;;;;;;5053637;28;20029;-60
2023/08/10 10:51:54;;;;;;;4.72;2.83;;;27.80;99.90;;;;;;5055014;28;20059;-60
2023/08/10 10:54:21;;;;;;;6.25;2.83;;;27.90;99.90;;;;;;5053019;28;20017;-60
2023/08/10 10:56:47;;;;;;;7.97;5.53;;;28.00;99.90;;;;;;5053594;28;20056;-60
2023/08/10 10:59:14;;;;;;;5.53;3.40;;;28.10;99.90;;;;;;5054573;28;20049;-60
2023/08/10 11:01:40;;;;;;;5.25;2.67;;;28.10;99.90;;;;;;5054766;28;20025;-60
2023/08/10 11:04:06;;;;;;;2.55;2.35;;;28.10;99.90;;;;;;5042497;28;20043;-60
2023/08/10 11:06:31;;;;;;;6.80;3.30;;;28.30;99.90;;;;;;5053112;28;20056;-60
2023/08/10 11:08:57;;;;;;;4.18;3.78;;;28.40;99.90;;;;;;5054072;28;20057;-60
2023/08/10 11:11:25;;;;;;;3.55;2.75;;;28.40;99.90;;;;;;5047478;28;20083;-60
2023/08/10 11:13:52;;;;;;;4.40;2.60;;;28.70;99.90;;;;;;5049552;28;20033;-60
2023/08/10 11:16:18;;;;;;;5.32;2.95;;;28.70;99.90;;;;;;5050432;28;20034;-61
2023/08/10 11:18:47;;;;;;;7.35;2.88;;;29.10;99.90;;;;;;5044883;28;21677;-60
2023/08/10 11:21:13;;;;;;;3.78;2.35;;;29.10;99.90;;;;;;5051844;28;20039;-60
2023/08/10 11:23:39;;;;;;;5.60;2.97;;;29.10;99.90;;;;;;5051679;28;20112;-58
2023/08/10 11:26:05;;;;;;;3.65;2.70;;;29.10;99.90;;;;;;5049486;28;20041;-60
2023/08/10 11:28:31;;;;;;;4.20;2.40;;;28.90;99.90;;;;;;5050759;28;20025;-60
2023/08/10 11:31:06;;;;;;;4.35;2.30;;;29.00;99.90;;;;;;5052870;28;20072;-60
2023/08/10 11:36:54;;;;;;;10.30;2.47;;;29.10;99.90;;;;;;5049197;28;20069;-59
2023/08/10 11:39:24;;;;;;;4.28;2.30;;;29.20;99.90;;;;;;5044999;28;20490;-59
2023/08/10 11:41:50;;;;;;;3.83;2.45;;;29.20;99.90;;;;;;5053056;28;20667;-59
2023/08/10 11:44:29;;;;;;;3.47;2.55;;;29.40;99.90;;;;;;5052274;28;20116;-60
2023/08/10 11:46:56;;;;;;;3.78;2.30;;;;;;;;;;5053195;28;20037;-59
2023/08/10 11:49:24;;;;;;;5.55;2.60;;;29.60;99.90;;;;;;5052066;28;20032;-59
2023/08/10 11:51:52;;;;;;;3.45;1.90;;;30.30;99.90;;;;;;5051038;28;20394;-59
2023/08/10 11:54:18;;;;;;;2.90;2.53;;;;;;;;;;5053209;28;20033;-60
2023/08/10 11:56:44;;;;;;;5.18;2.42;;;39.10;99.90;;;;;;5046808;28;20128;-60
2023/08/10 11:59:14;;;;;;;5.28;2.40;;;41.00;99.90;;;;;;5052854;28;20440;-59
2023/08/10 12:01:54;;;;;;;2.67;2.38;;;42.20;99.90;;;;;;5044062;28;20414;-60
2023/08/10 12:04:20;;;;;;;4.70;2.97;;;41.90;99.90;;;;;;5047945;28;20063;-60
2023/08/10 12:06:46;;;;;;;6.32;2.83;;;40.80;99.90;;;;;;5039423;28;20021;-60
2023/08/10 12:09:12;;;;;;;5.82;2.95;;;40.20;99.90;;;;;;5046311;28;20059;-60
2023/08/10 12:11:41;;;;;;;5.10;3.03;;;40.20;99.90;;;;;;5049925;28;20071;-60
2023/08/10 12:14:08;;;;;;;6.22;3.60;;;;;;;;;;5047107;28;20071;-60
2023/08/10 12:16:35;;;;;;;4.30;3.65;;;42.20;99.90;;;;;;5048007;28;20052;-60
2023/08/10 12:19:01;;;;;;;6.15;3.75;;;41.80;99.90;;;;;;5046385;28;20052;-60
2023/08/10 12:21:26;;;;;;;3.65;3.10;;;42.30;99.90;;;;;;5046843;28;20039;-60
2023/08/10 12:23:52;;;;;;;3.83;3.10;;;40.70;99.90;;;;;;5055310;28;20518;-60
2023/08/10 12:26:18;;;;;;;5.55;3.80;;;39.30;99.90;;;;;;5047135;28;20029;-60
2023/08/10 12:28:44;;;;;;;4.47;3.38;;;38.70;99.90;;;;;;5046351;28;20033;-60
2023/08/10 12:31:10;;;;;;;3.67;3.25;;;38.10;99.90;;;;;;5046735;28;20066;-60
2023/08/10 12:33:40;;;;;;;4.25;3.50;;;37.30;99.90;;;;;;5042644;28;20032;-60
2023/08/10 12:36:06;;;;;;;5.30;3.22;;;37.20;99.90;;;;;;5047463;28;20052;-61
2023/08/10 12:38:32;;;;;;;5.60;3.60;;;37.40;99.90;;;;;;5045097;28;20506;-60
2023/08/10 12:40:58;;;;;;;3.85;3.47;;;37.60;99.90;;;;;;5058867;28;20403;-61
2023/08/10 12:43:23;;;;;;;3.58;3.28;;;38.00;99.90;;;;;;5044435;28;20044;-61
2023/08/10 12:45:50;;;;;;;5.53;3.42;;;37.10;99.90;;;;;;5042466;28;20025;-61
2023/08/10 12:48:15;;;;;;;3.17;2.95;;;37.20;99.90;;;;;;5050794;28;20036;-61
2023/08/10 12:50:41;;;;;;;6.40;3.65;;;36.50;99.90;;;;;;5044458;28;20021;-61
2023/08/10 12:53:08;;;;;;;4.90;3.15;;;36.00;99.90;;;;;;5045201;28;20467;-61
2023/08/10 12:55:34;;;;;;;3.38;3.08;;;36.00;99.90;;;;;;5035652;28;20025;-61
2023/08/10 12:57:59;;;;;;;3.08;2.88;;;36.20;99.90;;;;;;5051248;28;20056;-60
2023/08/10 13:00:27;;;;;;;3.17;2.88;;;35.90;99.90;;;;;;5039126;28;20051;-61
2023/08/10 13:02:53;;;;;;;2.63;2.47;;;;;;;;;;5050642;28;20033;-61
2023/08/10 13:05:19;;;;;;;3.28;2.97;;;35.80;99.90;;;;;;5051549;28;20021;-61
2023/08/10 13:07:46;;;;;;;4.03;3.03;;;35.60;99.90;;;;;;5049748;28;20029;-60
2023/08/10 13:10:12;;;;;;;3.80;2.70;;;35.00;99.90;;;;;;5046926;28;20105;-61
2023/08/10 13:12:38;;;;;;;5.03;3.03;;;35.20;99.90;;;;;;5026452;28;20438;-62
2023/08/10 13:15:05;;;;;;;3.30;3.10;;;35.60;99.90;;;;;;5042372;28;20025;-61
2023/08/10 13:17:31;;;;;;;5.13;3.08;;;36.10;99.90;;;;;;5046598;28;20040;-61
2023/08/10 13:20:00;;;;;;;6.00;3.55;;;35.50;99.90;;;;;;5047579;28;20068;-61
2023/08/10 13:22:34;;;;;;;8.45;3.97;;;35.60;99.90;;;;;;5048139;28;20056;-61
2023/08/10 13:25:01;;;;;;;5.70;3.20;;;35.40;99.90;;;;;;5046266;28;20136;-61
2023/08/10 13:27:26;;;;;;;4.32;3.00;;;35.20;99.90;;;;;;5038316;28;20053;-61